createdAt,value
2022-10-05T00:01:35.447Z,7.30
2022-10-05T00:04:17.036Z,7.53
2022-10-05T00:06:47.795Z,7.33
2022-10-05T00:09:21.188Z,7.50
2022-10-05T00:11:49.624Z,7.50
2022-10-05T00:14:30.940Z,7.13
2022-10-05T00:16:58.259Z,6.70
2022-10-05T00:19:38.278Z,7.23
2022-10-05T00:22:20.734Z,6.80
2022-10-05T00:24:52.030Z,6.43
2022-10-05T00:27:21.727Z,7.40
2022-10-05T00:29:50.754Z,6.87
2022-10-05T00:32:18.269Z,7.43
2022-10-05T00:34:45.926Z,7.30
2022-10-05T00:37:14.601Z,7.03
2022-10-05T00:39:42.394Z,7.80
2022-10-05T00:42:18.485Z,7.10
2022-10-05T00:45:09.367Z,7.43
2022-10-05T00:48:04.338Z,8.87
2022-10-05T00:51:11.929Z,7.17
2022-10-05T00:53:54.028Z,6.90
2022-10-05T00:56:37.658Z,7.70
2022-10-05T00:59:40.216Z,6.77
2022-10-05T01:02:37.072Z,7.67
2022-10-05T01:05:04.378Z,7.60
2022-10-05T01:07:51.584Z,7.27
2022-10-05T01:10:35.076Z,7.40
2022-10-05T01:13:29.091Z,8.33
2022-10-05T01:16:20.515Z,8.37
2022-10-05T01:19:17.923Z,7.73
2022-10-05T01:22:00.821Z,8.23
2022-10-05T01:24:50.031Z,8.40
2022-10-05T01:27:47.967Z,7.97
2022-10-05T01:30:22.488Z,8.17
2022-10-05T01:32:58.798Z,7.77
2022-10-05T01:35:52.391Z,8.10
2022-10-05T01:38:40.157Z,7.17
2022-10-05T01:41:15.545Z,7.30
2022-10-05T01:43:52.198Z,6.23
2022-10-05T01:46:46.368Z,7.27
2022-10-05T01:49:32.173Z,8.00
2022-10-05T01:52:22.101Z,6.43
2022-10-05T01:55:18.664Z,7.13
2022-10-05T01:58:12.126Z,7.70
2022-10-05T02:01:06.705Z,7.27
2022-10-05T02:03:42.883Z,6.63
2022-10-05T02:06:15.316Z,7.03
2022-10-05T02:08:52.503Z,7.40
2022-10-05T02:11:20.275Z,6.97
2022-10-05T02:14:00.391Z,6.87
2022-10-05T02:16:37.662Z,7.67
2022-10-05T02:19:27.763Z,8.10
2022-10-05T02:22:02.174Z,7.53
2022-10-05T02:24:36.090Z,8.00
2022-10-05T02:27:05.450Z,7.20
2022-10-05T02:29:35.877Z,7.87
2022-10-05T02:32:14.390Z,7.33
2022-10-05T02:34:43.449Z,6.77
2022-10-05T02:37:30.727Z,8.00
2022-10-05T02:40:36.265Z,6.93
2022-10-05T02:43:03.399Z,7.83
2022-10-05T02:45:50.396Z,8.33
2022-10-05T02:48:30.178Z,7.70
2022-10-05T02:51:01.616Z,8.20
2022-10-05T02:53:44.862Z,8.93
2022-10-05T02:56:36.645Z,8.10
2022-10-05T02:59:12.306Z,8.67
2022-10-05T03:01:55.239Z,7.77
2022-10-05T03:04:28.537Z,7.63
2022-10-05T03:07:11.325Z,7.43
2022-10-05T03:09:53.816Z,7.87
2022-10-05T03:12:40.518Z,9.47
2022-10-05T03:15:19.679Z,8.90
2022-10-05T03:18:20.095Z,8.80
2022-10-05T03:21:23.680Z,8.30
2022-10-05T03:24:29.123Z,8.40
2022-10-05T03:27:15.719Z,8.83
2022-10-05T03:30:02.472Z,8.37
2022-10-05T03:32:57.521Z,9.17
2022-10-05T03:35:41.221Z,9.43
2022-10-05T03:38:34.615Z,7.70
2022-10-05T03:41:20.384Z,8.57
2022-10-05T03:44:13.582Z,8.80
2022-10-05T03:46:56.622Z,9.40
2022-10-05T03:49:49.535Z,9.13
2022-10-05T03:52:32.062Z,11.13
2022-10-05T03:55:30.489Z,9.93
2022-10-05T03:58:07.310Z,10.93
2022-10-05T04:00:36.812Z,11.43
2022-10-05T04:03:31.108Z,13.27
2022-10-05T04:06:04.667Z,13.03
2022-10-05T04:08:59.402Z,13.93
2022-10-05T04:11:35.151Z,16.97
2022-10-05T04:14:26.836Z,17.40
2022-10-05T04:16:57.351Z,14.73
2022-10-05T04:19:51.614Z,16.60
2022-10-05T04:22:23.775Z,16.00
2022-10-05T04:25:23.264Z,15.53
2022-10-05T04:28:08.028Z,16.27
2022-10-05T04:30:40.668Z,17.37
2022-10-05T04:33:13.743Z,16.37
2022-10-05T04:35:56.433Z,16.87
2022-10-05T04:38:29.551Z,18.53
2022-10-05T04:41:15.594Z,16.67
2022-10-05T04:44:07.214Z,18.40
2022-10-05T04:46:57.962Z,20.03
2022-10-05T04:49:38.139Z,18.37
2022-10-05T04:52:35.050Z,18.80
2022-10-05T04:55:40.095Z,18.83
2022-10-05T04:58:36.738Z,18.33
2022-10-05T05:01:28.532Z,17.50
2022-10-05T05:04:33.407Z,17.60
2022-10-05T05:07:15.012Z,18.80
2022-10-05T05:10:10.366Z,17.00
2022-10-05T05:13:14.546Z,16.60
2022-10-05T05:16:03.575Z,17.63
2022-10-05T05:18:46.481Z,16.60
2022-10-05T05:21:51.843Z,17.80
2022-10-05T05:24:31.319Z,16.17
2022-10-05T05:26:58.970Z,16.07
2022-10-05T05:30:04.189Z,15.77
2022-10-05T05:32:37.690Z,16.30
2022-10-05T05:35:14.624Z,15.90
2022-10-05T05:39:59.747Z,15.67
2022-10-05T05:42:46.840Z,15.83
2022-10-05T05:45:20.492Z,15.10
2022-10-05T05:47:54.207Z,17.33
2022-10-05T05:50:32.453Z,16.33
2022-10-05T05:53:13.977Z,23.37
2022-10-05T05:56:04.594Z,21.70
2022-10-05T05:58:38.624Z,17.60
2022-10-05T06:01:32.904Z,17.30
2022-10-05T06:04:17.255Z,14.37
2022-10-05T06:06:51.127Z,13.80
2022-10-05T06:09:19.003Z,12.50
2022-10-05T06:12:12.871Z,12.83
2022-10-05T06:14:46.870Z,12.13
2022-10-05T06:17:22.107Z,10.80
2022-10-05T06:19:59.927Z,10.33
2022-10-05T06:22:39.061Z,9.83
2022-10-05T06:25:17.268Z,9.73
2022-10-05T06:28:12.468Z,10.13
2022-10-05T06:31:29.971Z,8.47
2022-10-05T06:34:22.013Z,7.83
2022-10-05T06:37:13.566Z,7.27
2022-10-05T06:40:03.191Z,7.53
2022-10-05T06:42:55.987Z,8.00
2022-10-05T06:45:59.917Z,6.77
2022-10-05T06:48:53.105Z,7.00
2022-10-05T06:52:02.855Z,7.07
2022-10-05T06:54:45.885Z,6.87
2022-10-05T06:57:36.415Z,7.17
2022-10-05T07:00:28.251Z,7.90
2022-10-05T07:03:19.979Z,7.23
2022-10-05T07:06:05.913Z,6.20
2022-10-05T07:08:58.558Z,6.17
2022-10-05T07:11:34.121Z,6.03
2022-10-05T07:14:22.664Z,5.87
2022-10-05T07:17:26.042Z,6.43
2022-10-05T07:20:17.859Z,6.20
2022-10-05T07:23:11.132Z,5.93
2022-10-05T07:26:07.708Z,6.17
2022-10-05T07:28:48.748Z,5.53
2022-10-05T07:31:36.690Z,5.53
2022-10-05T07:34:19.810Z,6.17
2022-10-05T07:37:16.389Z,6.20
2022-10-05T07:40:15.655Z,4.77
2022-10-05T07:43:22.650Z,5.53
2022-10-05T07:46:02.932Z,4.67
2022-10-05T07:48:48.815Z,4.80
2022-10-05T07:51:23.251Z,5.50
2022-10-05T07:53:59.135Z,5.17
2022-10-05T07:56:41.159Z,5.00
2022-10-05T07:59:21.103Z,4.68
2022-10-05T08:01:53.238Z,4.57
2022-10-05T08:04:41.759Z,4.05
2022-10-05T08:07:15.792Z,3.90
2022-10-05T08:09:52.213Z,3.83
2022-10-05T08:12:51.080Z,4.22
2022-10-05T08:15:22.698Z,4.82
2022-10-05T08:17:55.600Z,4.28
2022-10-05T08:20:33.696Z,4.18
2022-10-05T08:23:20.060Z,3.83
2022-10-05T08:26:12.401Z,4.85
2022-10-05T08:29:03.345Z,4.60
2022-10-05T08:31:37.648Z,4.43
2022-10-05T08:34:26.555Z,4.10
2022-10-05T08:37:09.296Z,4.32
2022-10-05T08:39:43.043Z,4.13
2022-10-05T08:42:20.291Z,4.40
2022-10-05T08:44:55.241Z,4.57
2022-10-05T08:47:40.988Z,4.60
2022-10-05T08:50:20.153Z,4.55
2022-10-05T08:52:53.515Z,4.35
2022-10-05T08:55:35.264Z,4.30
2022-10-05T08:58:20.578Z,3.97
2022-10-05T09:01:35.549Z,4.20
2022-10-05T09:04:33.819Z,4.93
2022-10-05T09:07:20.098Z,4.00
2022-10-05T09:10:02.913Z,4.50
2022-10-05T09:12:56.606Z,4.05
2022-10-05T09:15:42.733Z,4.32
2022-10-05T09:18:29.059Z,3.95
2022-10-05T09:21:33.320Z,4.15
2022-10-05T09:24:12.845Z,4.25
2022-10-05T09:26:59.863Z,4.38
2022-10-05T09:29:49.500Z,4.70
2022-10-05T09:32:40.194Z,3.97
2022-10-05T09:35:38.779Z,4.50
2022-10-05T09:38:39.086Z,4.07
2022-10-05T09:41:12.345Z,3.75
2022-10-05T09:44:04.507Z,3.65
2022-10-05T09:46:44.070Z,4.28
2022-10-05T09:49:31.762Z,4.18
2022-10-05T09:52:36.765Z,3.65
2022-10-05T09:55:16.692Z,4.55
2022-10-05T09:57:53.304Z,3.90
2022-10-05T10:00:54.114Z,3.90
2022-10-05T10:04:19.386Z,4.43
2022-10-05T10:07:13.780Z,4.43
2022-10-05T10:10:05.059Z,4.05
2022-10-05T10:13:02.028Z,3.55
2022-10-05T10:15:51.141Z,3.17
2022-10-05T10:18:21.788Z,3.28
2022-10-05T10:21:11.922Z,3.20
2022-10-05T10:24:14.906Z,3.40
2022-10-05T10:27:19.461Z,3.85
2022-10-05T10:30:14.823Z,3.83
2022-10-05T10:33:16.969Z,3.88
2022-10-05T10:36:02.901Z,3.13
2022-10-05T10:38:45.278Z,3.08
2022-10-05T10:41:57.026Z,3.05
2022-10-05T10:44:48.111Z,3.05
2022-10-05T10:47:40.246Z,3.58
2022-10-05T10:50:54.035Z,2.78
2022-10-05T10:53:57.640Z,3.35
2022-10-05T10:57:07.076Z,3.05
2022-10-05T10:59:55.693Z,2.90
2022-10-05T11:02:27.806Z,2.83
2022-10-05T11:05:05.868Z,2.83
2022-10-05T11:08:24.919Z,3.28
2022-10-05T12:02:05.592Z,4.05
2022-10-05T12:05:21.380Z,3.65
2022-10-05T12:08:03.229Z,3.75
2022-10-05T12:10:51.796Z,3.88
2022-10-05T12:13:45.173Z,4.30
2022-10-05T12:16:20.673Z,3.80
2022-10-05T12:18:56.114Z,3.88
2022-10-05T12:21:54.958Z,2.92
2022-10-05T12:24:30.609Z,3.63
2022-10-05T12:27:22.656Z,3.63
2022-10-05T12:29:52.896Z,3.67
2022-10-05T12:32:30.234Z,3.65
2022-10-05T12:35:29.983Z,2.83
2022-10-05T12:38:25.726Z,3.42
2022-10-05T12:41:19.900Z,2.88
2022-10-05T12:44:02.553Z,3.45
2022-10-05T12:47:04.326Z,3.10
2022-10-05T12:49:40.720Z,3.70
2022-10-05T12:52:36.129Z,3.65
2022-10-05T12:55:18.065Z,3.85
2022-10-05T12:58:09.338Z,4.00
2022-10-05T13:00:47.372Z,3.30
2022-10-05T13:03:24.999Z,3.30
2022-10-05T13:06:05.387Z,3.10
2022-10-05T13:08:51.048Z,3.53
2022-10-05T13:11:44.047Z,2.47
2022-10-05T13:14:40.985Z,3.78
2022-10-05T13:17:43.150Z,3.28
2022-10-05T13:20:50.681Z,4.28
2022-10-05T13:24:03.034Z,3.70
2022-10-05T13:26:35.497Z,3.83
2022-10-05T13:29:17.286Z,3.30
2022-10-05T13:31:54.572Z,3.60
2022-10-05T13:34:37.678Z,3.95
2022-10-05T13:38:00.481Z,4.43
2022-10-05T13:40:48.189Z,3.67
2022-10-05T13:43:56.503Z,3.45
2022-10-05T13:46:37.885Z,3.28
2022-10-05T13:52:21.322Z,3.25
2022-10-05T13:55:14.902Z,4.20
2022-10-05T13:58:05.856Z,3.78
2022-10-05T14:00:45.666Z,5.10
2022-10-05T14:03:30.169Z,3.72
2022-10-05T14:06:00.062Z,4.93
2022-10-05T14:08:34.710Z,3.60
2022-10-05T14:11:20.859Z,3.50
2022-10-05T14:13:49.142Z,2.88
2022-10-05T14:16:16.847Z,3.10
2022-10-05T14:18:58.856Z,2.70
2022-10-05T14:21:30.810Z,3.03
2022-10-05T14:24:43.179Z,3.30
2022-10-05T14:27:23.133Z,3.40
2022-10-05T14:30:12.975Z,3.75
2022-10-05T14:32:56.355Z,3.70
2022-10-05T14:35:26.307Z,3.15
2022-10-05T14:38:15.711Z,3.58
2022-10-05T14:40:43.099Z,3.72
2022-10-05T14:43:16.661Z,3.20
2022-10-05T14:45:55.359Z,3.05
2022-10-05T14:48:24.344Z,3.28
2022-10-05T14:50:55.165Z,2.65
2022-10-05T14:53:38.155Z,2.72
2022-10-05T14:56:33.305Z,5.18
2022-10-05T14:59:24.748Z,5.20
2022-10-05T15:02:28.325Z,4.00
2022-10-05T15:05:15.707Z,6.50
2022-10-05T15:07:48.080Z,3.63
2022-10-05T15:10:44.222Z,3.20
2022-10-05T15:13:16.434Z,3.30
2022-10-05T15:15:56.225Z,3.60
2022-10-05T15:19:02.601Z,3.88
2022-10-05T15:21:54.573Z,4.53
2022-10-05T15:24:37.951Z,5.57
2022-10-05T15:27:20.306Z,8.32
2022-10-05T15:30:18.297Z,7.47
2022-10-05T15:33:01.376Z,7.97
2022-10-05T15:35:50.086Z,6.72
2022-10-05T15:38:21.351Z,5.88
2022-10-05T15:41:16.473Z,4.78
2022-10-05T15:44:02.087Z,5.70
2022-10-05T15:46:55.763Z,4.18
2022-10-05T15:49:45.303Z,4.00
2022-10-05T15:52:51.314Z,5.97
2022-10-05T15:55:32.278Z,3.88
2022-10-05T15:58:21.391Z,3.78
2022-10-05T16:01:10.938Z,3.15
2022-10-05T16:03:54.453Z,3.53
2022-10-05T16:06:55.555Z,3.38
2022-10-05T16:09:46.364Z,3.17
2022-10-05T16:12:22.788Z,3.67
2022-10-05T16:14:56.821Z,4.03
2022-10-05T16:18:01.634Z,3.90
2022-10-05T16:20:51.762Z,3.57
2022-10-05T16:23:32.445Z,4.50
2022-10-05T16:26:36.602Z,3.80
2022-10-05T16:29:25.556Z,4.57
2022-10-05T16:32:00.375Z,4.03
2022-10-05T16:34:36.504Z,4.57
2022-10-05T16:37:14.964Z,4.80
2022-10-05T16:39:58.614Z,4.43
2022-10-05T16:42:37.666Z,4.30
2022-10-05T16:45:27.655Z,4.90
2022-10-05T16:48:19.853Z,4.50
2022-10-05T16:50:56.181Z,5.00
2022-10-05T16:53:36.103Z,4.10
2022-10-05T16:56:14.910Z,4.33
2022-10-05T16:59:06.372Z,3.83
2022-10-05T17:01:46.372Z,3.90
2022-10-05T17:04:45.361Z,4.23
2022-10-05T17:07:47.608Z,4.33
2022-10-05T17:10:25.078Z,4.40
2022-10-05T17:13:14.322Z,5.43
2022-10-05T17:16:12.612Z,6.40
2022-10-05T17:19:02.095Z,6.40
2022-10-05T17:21:35.664Z,6.83
2022-10-05T17:24:32.556Z,8.20
2022-10-05T17:27:18.172Z,7.07
2022-10-05T17:29:54.732Z,6.87
2022-10-05T17:32:23.173Z,6.50
2022-10-05T17:35:03.155Z,8.40
2022-10-05T17:37:36.086Z,7.37
2022-10-05T17:40:43.525Z,7.70
2022-10-05T17:43:17.096Z,8.40
2022-10-05T17:45:44.659Z,8.27
2022-10-05T17:48:33.165Z,8.23
2022-10-05T17:51:19.227Z,7.63
2022-10-05T17:54:07.024Z,8.40
2022-10-05T17:56:49.736Z,9.57
2022-10-05T17:59:39.507Z,9.50
2022-10-05T18:02:36.315Z,8.77
2022-10-05T18:05:21.496Z,9.57
2022-10-05T18:08:11.648Z,8.80
2022-10-05T18:11:07.200Z,8.40
2022-10-05T18:13:44.145Z,9.43
2022-10-05T18:16:12.268Z,10.17
2022-10-05T18:18:43.257Z,10.10
2022-10-05T18:21:20.603Z,10.47
2022-10-05T18:23:57.020Z,9.77
2022-10-05T18:26:36.922Z,10.20
2022-10-05T18:29:39.651Z,10.23
2022-10-05T18:32:25.001Z,10.17
2022-10-05T18:35:28.556Z,9.77
2022-10-05T18:38:18.795Z,9.83
2022-10-05T18:41:06.433Z,9.73
2022-10-05T18:43:56.939Z,10.17
2022-10-05T18:47:09.243Z,9.47
2022-10-05T18:49:57.408Z,10.13
2022-10-05T18:52:40.574Z,10.17
2022-10-05T18:55:12.296Z,11.57
2022-10-05T18:57:49.209Z,12.60
2022-10-05T19:00:24.595Z,14.10
2022-10-05T19:02:58.097Z,11.13
2022-10-05T19:05:54.122Z,12.77
2022-10-05T19:08:39.347Z,11.37
2022-10-05T19:11:33.876Z,10.97
2022-10-05T19:14:20.453Z,11.27
2022-10-05T19:17:09.612Z,10.63
2022-10-05T19:19:48.193Z,10.00
2022-10-05T19:22:25.981Z,10.27
2022-10-05T19:25:02.023Z,10.80
2022-10-05T19:27:38.973Z,10.20
2022-10-05T19:30:22.319Z,10.70
2022-10-05T19:33:05.099Z,11.70
2022-10-05T19:35:54.076Z,11.83
2022-10-05T19:38:36.872Z,10.60
2022-10-05T19:41:16.184Z,13.10
2022-10-05T19:43:53.063Z,11.70
2022-10-05T19:46:42.723Z,11.00
2022-10-05T19:49:11.030Z,11.40
2022-10-05T19:51:50.782Z,12.77
2022-10-05T19:54:26.990Z,12.13
2022-10-05T19:56:56.016Z,11.73
2022-10-05T19:59:27.726Z,11.80
2022-10-05T20:01:57.080Z,10.83
2022-10-05T20:04:33.734Z,10.27
2022-10-05T20:07:02.531Z,10.63
2022-10-05T20:09:48.615Z,10.10
2022-10-05T20:12:16.361Z,10.87
2022-10-05T20:15:02.624Z,11.53
2022-10-05T20:17:49.384Z,10.63
2022-10-05T20:20:34.789Z,10.47
2022-10-05T20:23:22.011Z,11.07
2022-10-05T20:26:09.977Z,12.40
2022-10-05T20:28:38.608Z,11.03
2022-10-05T20:31:08.016Z,12.77
2022-10-05T20:33:35.692Z,11.53
2022-10-05T20:36:03.825Z,10.90
2022-10-05T20:38:31.941Z,9.97
2022-10-05T20:40:59.380Z,10.43
2022-10-05T20:43:28.243Z,10.87
2022-10-05T20:45:55.449Z,9.90
2022-10-05T20:48:23.478Z,8.53
2022-10-05T20:50:50.822Z,7.87
2022-10-05T20:53:18.119Z,9.07
2022-10-05T20:55:45.773Z,8.23
2022-10-05T20:58:13.228Z,8.00
2022-10-05T21:00:59.219Z,8.60
2022-10-05T21:03:27.239Z,8.40
2022-10-05T21:05:54.450Z,7.47
2022-10-05T21:08:21.814Z,7.60
2022-10-05T21:10:50.619Z,8.70
2022-10-05T21:13:18.596Z,8.13
2022-10-05T21:15:46.222Z,8.00
2022-10-05T21:18:15.888Z,7.80
2022-10-05T21:20:43.195Z,7.80
2022-10-05T21:23:12.285Z,6.93
2022-10-05T21:25:39.591Z,8.30
2022-10-05T21:28:06.913Z,7.83
2022-10-05T21:30:34.647Z,7.03
2022-10-05T21:33:02.058Z,7.07
2022-10-05T21:35:29.295Z,6.57
2022-10-05T21:37:57.216Z,6.70
2022-10-05T21:40:24.463Z,7.10
2022-10-05T21:42:51.879Z,6.77
2022-10-05T21:45:19.622Z,7.10
2022-10-05T21:47:47.206Z,6.53
2022-10-05T21:50:14.561Z,6.80
2022-10-05T21:52:42.248Z,6.23
2022-10-05T21:55:10.495Z,5.73
2022-10-05T21:57:38.319Z,6.77
2022-10-05T22:00:08.659Z,5.90
2022-10-05T22:02:36.474Z,5.97
2022-10-05T22:05:03.801Z,7.13
2022-10-05T22:07:31.242Z,6.83
2022-10-05T22:09:58.399Z,5.40
2022-10-05T22:12:26.518Z,6.13
2022-10-05T22:14:53.975Z,6.70
2022-10-05T22:17:28.074Z,6.27
2022-10-05T22:19:56.238Z,7.10
2022-10-05T22:22:24.498Z,6.53
2022-10-05T22:24:52.660Z,6.30
2022-10-05T22:27:24.764Z,6.20
2022-10-05T22:29:52.083Z,5.73
2022-10-05T22:32:19.212Z,6.17
2022-10-05T22:34:46.519Z,6.73
2022-10-05T22:37:14.321Z,6.13
2022-10-05T22:39:42.771Z,6.70
2022-10-05T22:42:10.502Z,5.80
2022-10-05T22:44:39.085Z,5.67
2022-10-05T22:47:06.269Z,6.33
2022-10-05T22:49:33.626Z,5.73
2022-10-05T22:52:01.150Z,7.67
2022-10-05T22:54:30.515Z,6.67
2022-10-05T22:57:00.025Z,5.83
2022-10-05T22:59:27.208Z,5.87
2022-10-05T23:01:54.482Z,6.17
2022-10-05T23:04:21.922Z,6.13
2022-10-05T23:06:49.095Z,6.50
2022-10-05T23:09:16.209Z,6.47
2022-10-05T23:11:43.563Z,5.70
2022-10-05T23:14:10.682Z,6.00
2022-10-05T23:16:37.803Z,6.20
2022-10-05T23:19:05.166Z,6.73
2022-10-05T23:21:32.340Z,5.27
2022-10-05T23:23:59.441Z,7.10
2022-10-05T23:26:26.983Z,6.77
2022-10-05T23:28:54.302Z,5.63
2022-10-05T23:31:24.386Z,5.63
2022-10-05T23:33:52.750Z,6.40
2022-10-05T23:36:22.311Z,6.60
2022-10-05T23:38:49.687Z,6.17
2022-10-05T23:41:18.013Z,5.77
2022-10-05T23:43:45.603Z,5.80
2022-10-05T23:46:13.277Z,5.77
2022-10-05T23:48:40.698Z,6.10
2022-10-05T23:51:10.869Z,5.70
2022-10-05T23:53:38.498Z,6.23
2022-10-05T23:56:06.384Z,6.27
2022-10-05T23:58:33.809Z,6.53
